Time;durP1;ratioP1;P1;durP2;ratioP2;P2;SDS_P1;SDS_P2;PMS_P1;PMS_P2;Temp;Humidity;BMP_temperature;BMP_pressure;BME280_temperature;BME280_humidity;BME280_pressure;Samples;Min_cycle;Max_cycle;Signal;HPM_P1;HPM_P2
2023/07/28 00:00:44;;;;;;;8.27;7.53;;;;;;;16.77;100.00;100444.91;6103948;23;20335;-69
2023/07/28 00:03:09;;;;;;;8.15;7.45;;;;;;;16.77;100.00;100434.34;6104379;23;20036;-69
2023/07/28 00:05:36;;;;;;;8.18;7.47;;;;;;;16.75;100.00;100445.00;6104723;23;20013;-69
2023/07/28 00:08:02;;;;;;;7.97;7.28;;;;;;;16.72;100.00;100425.72;6104113;23;20012;-69
2023/07/28 00:10:27;;;;;;;8.05;7.25;;;;;;;16.72;100.00;100433.66;6080415;23;20013;-69
2023/07/28 00:12:53;;;;;;;7.80;7.10;;;;;;;16.70;100.00;100424.94;6104698;23;20005;-69
2023/07/28 00:15:18;;;;;;;7.85;7.15;;;;;;;16.69;100.00;100424.06;6102966;23;20025;-69
2023/07/28 00:27:14;;;;;;;8.20;7.50;;;;;;;16.67;100.00;100418.00;6153730;23;20017;-70
2023/07/28 00:29:41;;;;;;;8.15;7.43;;;;;;;16.68;100.00;100421.50;6080988;23;20048;-69
2023/07/28 00:32:07;;;;;;;7.93;7.15;;;;;;;16.69;100.00;100423.22;6103253;23;20400;-69
2023/07/28 00:34:32;;;;;;;7.72;7.03;;;;;;;16.67;100.00;100419.78;6103815;23;20020;-70
2023/07/28 00:36:58;;;;;;;7.97;7.28;;;;;;;16.66;100.00;100416.28;6129005;23;20017;-69
2023/07/28 00:39:23;;;;;;;8.77;7.63;;;;;;;16.68;100.00;100413.56;6128776;23;20068;-69
2023/07/28 00:41:49;;;;;;;8.02;7.22;;;;;;;16.67;100.00;100414.50;6104148;23;20112;-69
2023/07/28 00:44:16;;;;;;;7.85;7.05;;;;;;;16.62;100.00;100412.91;6103444;23;20398;-69
2023/07/28 00:46:42;;;;;;;8.27;7.22;;;;;;;16.66;100.00;100418.06;6127767;23;20448;-69
2023/07/28 00:49:08;;;;;;;8.20;7.40;;;;;;;16.67;100.00;100425.09;6079610;23;20024;-69
2023/07/28 00:51:36;;;;;;;8.50;7.40;;;;;;;16.63;100.00;100413.75;6080530;23;20009;-69
2023/07/28 00:54:04;;;;;;;8.20;7.50;;;;;;;16.67;100.00;100417.16;6127907;23;20013;-69
2023/07/28 00:56:29;;;;;;;9.07;8.15;;;;;;;16.67;100.00;100419.78;6128551;23;20012;-69
2023/07/28 00:58:55;;;;;;;10.52;8.45;;;;;;;16.66;100.00;100413.63;6079775;23;20013;-69
2023/07/28 01:01:21;;;;;;;10.73;7.97;;;;;;;16.66;100.00;100418.91;6127719;23;20044;-69
2023/07/28 01:03:46;;;;;;;8.68;7.88;;;;;;;16.65;100.00;100422.50;6103802;23;20012;-69
2023/07/28 01:06:52;;;;;;;9.25;8.45;;;;;;;16.69;100.00;100425.88;6103921;23;20463;-69
2023/07/28 01:09:24;;;;;;;9.63;8.73;;;;;;;16.66;100.00;100437.44;6026364;23;20071;-69
2023/07/28 01:11:54;;;;;;;9.90;8.90;;;;;;;16.70;100.00;100446.97;6126664;23;20390;-69
2023/07/28 01:14:19;;;;;;;11.23;9.43;;;;;;;16.69;100.00;100429.34;6102788;23;20016;-69
2023/07/28 01:16:45;;;;;;;9.63;8.77;;;;;;;16.70;100.00;100433.72;6102154;23;20009;-69
2023/07/28 01:19:12;;;;;;;11.73;9.23;;;;;;;16.72;100.00;100438.94;6103144;23;20339;-69
2023/07/28 01:21:43;;;;;;;9.57;8.68;;;;;;;16.71;100.00;100439.91;6103379;23;20005;-69
2023/07/28 01:24:29;;;;;;;10.70;9.68;;;;;;;16.77;100.00;100436.97;6103366;23;20076;-69
2023/07/28 01:26:55;;;;;;;9.90;9.00;;;;;;;16.76;100.00;100441.38;6126305;23;20416;-69
2023/07/28 01:29:22;;;;;;;10.38;9.38;;;;;;;16.75;100.00;100434.41;6152484;23;20016;-69
2023/07/28 01:31:47;;;;;;;9.85;8.93;;;;;;;16.75;100.00;100433.53;6078761;23;20029;-69
2023/07/28 01:34:13;;;;;;;10.15;9.15;;;;;;;16.75;100.00;100433.53;6102758;23;20335;-69
2023/07/28 01:36:38;;;;;;;10.82;9.82;;;;;;;16.76;100.00;100441.38;6079408;23;20070;-69
2023/07/28 01:39:04;;;;;;;10.82;9.82;;;;;;;16.75;100.00;100441.47;6103148;23;20101;-70
2023/07/28 01:41:29;;;;;;;10.60;9.60;;;;;;;16.79;100.00;100445.69;6102675;23;20005;-70
2023/07/28 01:43:55;;;;;;;10.25;9.25;;;;;;;16.79;100.00;100441.28;6102258;23;20013;-71
2023/07/28 01:46:22;;;;;;;9.95;9.05;;;;;;;16.81;100.00;100443.84;6101033;23;20044;-71
2023/07/28 01:48:47;;;;;;;10.20;9.30;;;;;;;16.75;100.00;100436.16;6127743;23;20040;-71
2023/07/28 01:51:13;;;;;;;10.00;9.00;;;;;;;16.76;100.00;100446.69;6103583;23;20348;-71
2023/07/28 01:53:38;;;;;;;10.85;9.80;;;;;;;16.79;100.00;100437.75;6102740;23;20454;-71
2023/07/28 01:56:03;;;;;;;10.65;9.65;;;;;;;16.78;100.00;100450.13;6126188;23;20087;-70
2023/07/28 01:58:29;;;;;;;10.77;9.68;;;;;;;16.79;100.00;100440.41;6078624;23;20093;-71
2023/07/28 02:00:54;;;;;;;10.32;9.43;;;;;;;16.81;100.00;100438.56;6100162;23;20309;-71
2023/07/28 02:03:20;;;;;;;9.18;8.38;;;;;;;16.82;100.00;100445.56;6127454;23;20431;-71
2023/07/28 02:05:45;;;;;;;10.68;9.68;;;;;;;16.82;100.00;100439.41;6102407;23;20043;-69
2023/07/28 02:08:11;;;;;;;10.02;9.13;;;;;;;16.80;100.00;100442.97;6102627;23;20351;-69
2023/07/28 02:10:36;;;;;;;10.65;9.63;;;;;;;16.79;100.00;100443.06;6102831;23;20440;-69
2023/07/28 02:13:02;;;;;;;10.43;9.43;;;;;;;16.80;100.00;100435.03;6102239;23;20040;-69
2023/07/28 02:15:27;;;;;;;10.13;9.10;;;;;;;16.79;100.00;100435.13;6125887;23;20737;-69
2023/07/28 02:17:53;;;;;;;10.63;9.68;;;;;;;16.82;100.00;100429.69;6103066;23;20017;-69
2023/07/28 02:20:18;;;;;;;11.25;10.15;;;;;;;16.79;100.00;100430.69;6079446;23;20021;-69
2023/07/28 02:22:44;;;;;;;11.95;10.75;;;;;;;16.80;100.00;100434.19;6127992;23;20009;-69
2023/07/28 02:25:10;;;;;;;10.93;9.70;;;;;;;16.82;100.00;100428.84;6126489;23;20014;-69
2023/07/28 02:27:37;;;;;;;10.35;9.25;;;;;;;16.80;100.00;100437.69;6126923;23;20008;-69
2023/07/28 02:30:03;;;;;;;11.35;10.25;;;;;;;16.79;100.00;100437.75;6127138;23;20006;-69
2023/07/28 02:32:29;;;;;;;10.65;9.65;;;;;;;16.77;100.00;100435.19;6102308;23;20043;-69
2023/07/28 02:34:55;;;;;;;11.13;10.02;;;;;;;16.78;100.00;100434.25;6101714;23;20454;-69
2023/07/28 02:37:27;;;;;;;10.70;9.70;;;;;;;16.80;100.00;100450.91;6103256;23;20324;-69
2023/07/28 02:39:53;;;;;;;11.13;9.93;;;;;;;16.80;100.00;100442.13;6126811;23;20012;-70
2023/07/28 02:42:18;;;;;;;11.65;10.55;;;;;;;16.78;100.00;100444.00;6102288;23;20009;-69
2023/07/28 02:44:44;;;;;;;11.27;10.20;;;;;;;16.79;100.00;100445.69;6102369;23;20012;-69
2023/07/28 02:47:10;;;;;;;12.13;10.93;;;;;;;16.80;100.00;100444.78;6102571;23;20006;-69
2023/07/28 02:49:35;;;;;;;12.43;10.85;;;;;;;16.80;100.00;100447.44;6097880;23;20028;-69
2023/07/28 02:52:02;;;;;;;12.13;10.93;;;;;;;16.77;100.00;100447.56;6121775;23;20178;-69
2023/07/28 02:54:28;;;;;;;13.23;11.82;;;;;;;16.79;100.00;100451.88;6073197;23;20016;-69
2023/07/28 02:56:54;;;;;;;14.82;11.30;;;;;;;16.79;100.00;100449.22;6075385;23;20093;-69
2023/07/28 02:59:22;;;;;;;13.63;12.23;;;;;;;16.80;100.00;100458.00;6099729;23;20362;-69
2023/07/28 03:01:47;;;;;;;13.10;11.80;;;;;;;16.77;100.00;100453.69;6122563;23;20006;-69
2023/07/28 03:04:13;;;;;;;13.20;11.77;;;;;;;16.78;100.00;100465.16;6099330;23;20330;-69
2023/07/28 03:06:38;;;;;;;14.10;12.52;;;;;;;16.79;100.00;100467.75;6098914;23;20379;-69
2023/07/28 03:09:03;;;;;;;19.63;13.25;;;;;;;16.80;100.00;100458.00;6076717;23;20496;-69
2023/07/28 03:11:29;;;;;;;14.98;13.02;;;;;;;16.81;100.00;100465.03;6076402;23;20336;-69
2023/07/28 03:13:54;;;;;;;14.75;12.77;;;;;;;16.80;100.00;100463.31;6124573;23;20014;-69
2023/07/28 03:16:20;;;;;;;15.68;13.40;;;;;;;16.81;100.00;100462.38;6123034;23;20020;-69
2023/07/28 03:18:45;;;;;;;15.18;13.43;;;;;;;16.82;100.00;100461.44;6099919;23;20397;-69
2023/07/28 03:21:11;;;;;;;15.55;13.82;;;;;;;16.85;100.00;100460.44;6076154;23;20392;-69
2023/07/28 03:23:36;;;;;;;15.85;14.05;;;;;;;16.84;100.00;100459.59;6124044;23;20088;-71
2023/07/28 03:26:02;;;;;;;17.25;14.20;;;;;;;16.85;100.00;100460.44;6099530;23;20440;-71
2023/07/28 03:28:27;;;;;;;17.60;14.80;;;;;;;16.86;100.00;100463.03;6099898;23;20014;-71
2023/07/28 03:30:53;;;;;;;17.60;14.68;;;;;;;16.82;100.00;100464.06;6098352;23;20021;-71
2023/07/28 03:33:18;;;;;;;16.70;14.75;;;;;;;16.80;100.00;100461.50;6099684;23;20009;-69
2023/07/28 03:35:44;;;;;;;18.05;14.77;;;;;;;16.83;100.00;100471.09;6074450;23;20018;-69
2023/07/28 03:38:09;;;;;;;18.10;15.23;;;;;;;16.82;100.00;100464.06;6074138;23;20010;-69
2023/07/28 03:40:35;;;;;;;18.85;15.15;;;;;;;16.88;100.00;100473.56;6099355;23;20017;-69
2023/07/28 03:43:01;;;;;;;19.23;15.50;;;;;;;16.89;100.00;100470.84;6099709;23;20088;-69
2023/07/28 03:45:27;;;;;;;18.30;16.30;;;;;;;16.85;100.00;100477.19;6097279;23;20407;-69
2023/07/28 03:47:52;;;;;;;21.92;16.85;;;;;;;16.84;100.00;100478.13;6075942;23;20093;-69
2023/07/28 03:50:18;;;;;;;20.58;16.83;;;;;;;16.85;100.00;100476.31;6122887;23;20080;-69
2023/07/28 03:52:43;;;;;;;21.23;17.17;;;;;;;16.87;100.00;100488.56;6099541;23;20014;-70
2023/07/28 03:55:09;;;;;;;20.75;16.70;;;;;;;16.85;100.00;100478.97;6122423;23;20006;-69
2023/07/28 03:57:34;;;;;;;20.95;16.23;;;;;;;16.86;100.00;100484.19;6123241;23;20020;-69
2023/07/28 03:59:59;;;;;;;20.35;16.90;;;;;;;16.86;100.00;100484.19;6074260;23;20010;-69
2023/07/28 04:02:25;;;;;;;21.65;17.02;;;;;;;16.86;100.00;100484.19;6074144;23;20006;-69
2023/07/28 04:04:54;;;;;;;20.25;16.77;;;;;;;16.85;100.00;100482.50;6098696;23;20039;-69
2023/07/28 04:07:20;;;;;;;19.70;16.77;;;;;;;16.89;100.00;100478.78;6074267;23;20006;-69
2023/07/28 04:09:45;;;;;;;21.80;17.27;;;;;;;16.88;100.00;100484.16;6098240;23;20077;-69
2023/07/28 04:12:13;;;;;;;21.92;17.35;;;;;;;16.88;100.00;100487.69;6098752;23;20093;-69
2023/07/28 04:14:39;;;;;;;20.55;17.08;;;;;;;16.84;100.00;100485.19;6122532;23;20519;-69
2023/07/28 04:17:07;;;;;;;23.15;17.02;;;;;;;16.85;100.00;100489.56;6122356;23;20017;-69
2023/07/28 04:19:33;;;;;;;20.63;17.38;;;;;;;16.83;100.00;100479.03;6123992;23;20001;-71
2023/07/28 04:22:00;;;;;;;22.50;17.92;;;;;;;16.82;100.00;100482.59;6123529;23;20014;-71
2023/07/28 04:24:26;;;;;;;22.58;18.35;;;;;;;16.85;100.00;100477.19;6123261;23;20020;-71
2023/07/28 04:26:51;;;;;;;22.52;18.55;;;;;;;16.83;100.00;100479.03;6075095;23;20010;-69
2023/07/28 04:29:17;;;;;;;22.52;18.52;;;;;;;16.85;100.00;100482.50;6075335;23;20092;-69
2023/07/28 04:31:42;;;;;;;24.77;18.40;;;;;;;16.84;100.00;100486.06;6074036;23;20010;-69
2023/07/28 04:34:08;;;;;;;25.58;18.42;;;;;;;16.86;100.00;100493.94;6098647;23;20378;-69
2023/07/28 04:36:34;;;;;;;25.98;19.70;;;;;;;16.84;100.00;100485.19;6099010;23;20014;-69
2023/07/28 04:38:59;;;;;;;29.52;19.80;;;;;;;16.84;100.00;100488.72;6123248;23;20037;-69
2023/07/28 04:41:25;;;;;;;28.20;20.17;;;;;;;16.85;100.00;100490.44;6125220;23;20017;-69
2023/07/28 04:43:51;;;;;;;24.77;19.38;;;;;;;16.85;100.00;100497.50;6123582;23;20340;-69
2023/07/28 04:46:16;;;;;;;28.45;20.10;;;;;;;16.89;100.00;100489.38;6096279;23;20006;-69
2023/07/28 04:48:41;;;;;;;24.98;19.42;;;;;;;16.86;100.00;100489.47;6099296;23;20013;-69
2023/07/28 04:51:07;;;;;;;23.98;19.40;;;;;;;16.92;100.00;100478.69;6075338;23;20026;-69
2023/07/28 04:53:32;;;;;;;22.63;18.50;;;;;;;16.94;100.00;100483.91;6075682;23;20017;-69
2023/07/28 04:55:58;;;;;;;25.88;19.55;;;;;;;16.92;100.00;100486.63;6098409;23;20018;-69
2023/07/28 04:58:23;;;;;;;22.65;19.15;;;;;;;16.90;100.00;100485.81;6097540;23;20097;-69
2023/07/28 05:00:49;;;;;;;20.67;18.05;;;;;;;16.95;100.00;100491.78;6121333;23;20032;-69
2023/07/28 05:03:14;;;;;;;24.50;18.77;;;;;;;16.97;100.00;100487.25;6098666;23;20449;-69
2023/07/28 05:05:43;;;;;;;22.92;19.30;;;;;;;17.00;100.00;100486.28;6121867;23;20006;-69
2023/07/28 05:08:08;;;;;;;22.58;19.30;;;;;;;17.17;100.00;100493.47;6121067;23;20045;-69
2023/07/28 05:10:34;;;;;;;20.75;18.23;;;;;;;17.24;100.00;100494.91;6097158;23;20046;-69
2023/07/28 05:12:59;;;;;;;20.98;18.33;;;;;;;17.26;100.00;100503.63;6074194;23;20006;-69
2023/07/28 05:15:29;;;;;;;21.23;17.95;;;;;;;17.20;100.00;100503.06;6072959;23;20093;-70
2023/07/28 05:17:55;;;;;;;22.15;18.40;;;;;;;17.26;100.00;100508.09;6123081;23;20014;-69
2023/07/28 05:20:20;;;;;;;25.52;18.65;;;;;;;17.22;100.00;100510.00;6098233;23;20096;-69
2023/07/28 05:22:46;;;;;;;22.85;18.20;;;;;;;17.24;100.00;100521.41;6075188;23;20001;-70
2023/07/28 05:25:11;;;;;;;19.73;16.15;;;;;;;17.28;100.00;100516.81;6097857;23;20057;-69
2023/07/28 05:27:40;;;;;;;19.13;16.38;;;;;;;17.35;100.00;100528.00;6095865;23;20028;-69
2023/07/28 05:30:06;;;;;;;21.20;16.08;;;;;;;17.36;100.00;100525.28;6093914;23;20086;-70
2023/07/28 05:32:32;;;;;;;20.85;16.15;;;;;;;17.35;100.00;100528.84;6120822;23;20455;-69
2023/07/28 05:34:57;;;;;;;18.42;16.35;;;;;;;17.39;100.00;100532.22;6122928;23;20005;-69
2023/07/28 05:37:24;;;;;;;18.48;16.42;;;;;;;17.38;100.00;100535.78;6073724;23;20017;-69
2023/07/28 05:39:49;;;;;;;20.85;16.25;;;;;;;17.38;100.00;100530.50;6097699;23;20014;-69
2023/07/28 05:42:15;;;;;;;21.35;17.65;;;;;;;17.37;100.00;100542.00;6097380;23;20002;-69
2023/07/28 05:44:40;;;;;;;21.20;17.63;;;;;;;17.38;100.00;100535.78;6122807;23;20014;-69
2023/07/28 05:47:06;;;;;;;22.40;18.92;;;;;;;17.39;100.00;100545.47;6098082;23;20014;-70
2023/07/28 05:49:31;;;;;;;19.70;17.45;;;;;;;17.43;100.00;100541.75;6098329;23;20097;-70
2023/07/28 05:51:57;;;;;;;19.67;17.05;;;;;;;17.43;100.00;100541.75;6098927;23;20088;-69
2023/07/28 05:54:23;;;;;;;23.05;18.58;;;;;;;17.41;100.00;100540.94;6099310;23;20010;-69
2023/07/28 05:56:51;;;;;;;20.85;17.48;;;;;;;17.40;100.00;100549.84;6098736;23;20049;-69
2023/07/28 05:59:17;;;;;;;22.15;18.08;;;;;;;17.41;100.00;100548.91;6122980;23;20498;-70
2023/07/28 06:01:42;;;;;;;21.02;16.92;;;;;;;17.43;100.00;100550.56;6097118;23;20029;-71
2023/07/28 06:04:07;;;;;;;22.25;18.20;;;;;;;17.45;100.00;100550.47;6122168;23;20100;-71
2023/07/28 06:06:33;;;;;;;23.13;19.02;;;;;;;17.44;100.00;100557.56;6098037;23;20010;-71
2023/07/28 06:08:58;;;;;;;22.00;19.73;;;;;;;17.43;100.00;100547.06;6098285;23;20010;-71
2023/07/28 06:11:24;;;;;;;26.95;22.20;;;;;;;17.46;100.00;100547.75;6098261;23;20045;-71
2023/07/28 06:13:49;;;;;;;27.23;23.70;;;;;;;17.48;100.00;100545.91;6074522;23;20009;-71
2023/07/28 06:16:15;;;;;;;27.45;24.55;;;;;;;17.51;100.00;100549.34;6073801;23;20010;-71
2023/07/28 06:18:41;;;;;;;29.40;25.15;;;;;;;17.54;100.00;100551.84;6122643;23;20338;-71
2023/07/28 06:21:06;;;;;;;29.95;26.27;;;;;;;17.60;100.00;100552.44;6123808;23;20006;-71
2023/07/28 06:23:32;;;;;;;29.98;26.85;;;;;;;17.62;100.00;100553.22;6099113;23;20037;-71
2023/07/28 06:25:57;;;;;;;34.47;29.00;;;;;;;17.63;100.00;100556.75;6121502;23;20164;-71
2023/07/28 06:28:23;;;;;;;34.47;29.52;;;;;;;17.69;100.00;100555.59;6073742;23;20013;-71
2023/07/28 06:30:54;;;;;;;34.67;30.48;;;;;;;17.70;100.00;100563.47;6123901;23;20088;-71
2023/07/28 06:33:19;;;;;;;34.90;31.20;;;;;;;17.74;100.00;100567.72;6124188;23;20030;-71
2023/07/28 06:35:47;;;;;;;36.33;31.58;;;;;;;17.79;100.00;100567.50;6075264;23;20441;-71
2023/07/28 06:38:13;;;;;;;40.95;35.03;;;;;;;17.80;100.00;100571.84;6123380;23;20445;-69
2023/07/28 06:40:39;;;;;;;43.92;35.50;;;;;;;17.82;100.00;100575.31;6100393;23;20081;-71
2023/07/28 06:43:04;;;;;;;42.53;35.55;;;;;;;17.83;100.00;100577.03;6076495;23;20438;-71
2023/07/28 06:45:30;;;;;;;41.88;34.67;;;;;;;17.87;100.00;100583.03;6075401;23;20542;-71
2023/07/28 06:47:55;;;;;;;43.10;35.30;;;;;;;17.88;100.00;100582.97;6100619;23;20024;-71
2023/07/28 06:50:21;;;;;;;45.63;37.13;;;;;;;17.85;100.00;100580.47;6116630;23;20124;-71
2023/07/28 06:52:47;;;;;;;44.88;35.13;;;;;;;17.87;100.00;100578.59;6081693;23;20005;-71
2023/07/28 06:55:14;;;;;;;44.30;33.95;;;;;;;17.84;100.00;100584.03;6105353;23;20089;-71
2023/07/28 06:57:39;;;;;;;40.97;33.33;;;;;;;17.88;100.00;100590.91;6081804;23;20012;-71
2023/07/28 07:03:25;;;;;;;38.28;30.83;;;;;;;18.04;100.00;100584.94;6155269;23;20029;-68
2023/07/28 07:05:51;;;;;;;36.45;29.77;;;;;;;18.06;100.00;100588.34;6127713;23;20040;-69
2023/07/28 07:08:16;;;;;;;35.00;28.08;;;;;;;18.11;100.00;100600.47;6081316;23;20005;-69
2023/07/28 07:10:48;;;;;;;34.47;26.67;;;;;;;18.15;100.00;100609.16;6129337;23;20522;-69
2023/07/28 07:13:14;;;;;;;33.60;27.25;;;;;;;18.23;100.00;100600.81;6129798;23;20032;-68
2023/07/28 07:15:40;;;;;;;32.80;26.65;;;;;;;18.23;100.00;100616.75;6104248;23;20340;-69
2023/07/28 07:18:05;;;;;;;34.00;27.25;;;;;;;18.25;100.00;100602.47;6103813;23;20369;-69
2023/07/28 07:20:34;;;;;;;30.63;24.45;;;;;;;18.24;100.00;100605.22;6129181;23;20013;-69
2023/07/28 07:22:59;;;;;;;32.78;24.70;;;;;;;18.30;100.00;100611.09;6129554;23;20001;-69
2023/07/28 07:25:25;;;;;;;28.60;24.10;;;;;;;18.35;100.00;100617.00;6081094;23;20021;-68
2023/07/28 07:27:50;;;;;;;27.75;23.33;;;;;;;18.41;100.00;100615.00;6105073;23;20041;-68
2023/07/28 07:30:16;;;;;;;25.50;22.30;;;;;;;18.40;100.00;100622.09;6103561;23;20335;-68
2023/07/28 07:32:42;;;;;;;26.88;21.50;;;;;;;18.44;100.00;100621.00;6105030;23;20010;-68
2023/07/28 07:35:08;;;;;;;28.75;22.45;;;;;;;18.45;100.00;100627.19;6104614;23;20020;-68
2023/07/28 07:37:34;;;;;;;25.85;21.42;;;;;;;18.46;100.00;100628.91;6104727;23;20024;-69
2023/07/28 07:40:04;;;;;;;25.40;20.65;;;;;;;18.51;100.00;100627.75;6104782;23;20009;-69
2023/07/28 07:42:42;;;;;;;26.55;20.85;;;;;;;18.49;100.00;100628.78;6130573;23;20005;-69
2023/07/28 07:45:09;;;;;;;22.50;19.65;;;;;;;18.45;100.00;100629.84;6128525;23;20005;-68
2023/07/28 07:47:35;;;;;;;22.92;19.00;;;;;;;18.46;100.00;100631.56;6105187;23;20119;-69
2023/07/28 07:50:14;;;;;;;20.73;18.25;;;;;;;18.44;100.00;100631.63;6128657;23;20431;-71
2023/07/28 07:52:40;;;;;;;23.93;19.37;;;;;;;18.41;100.00;100636.25;6128980;23;20092;-71
2023/07/28 07:55:05;;;;;;;21.27;18.27;;;;;;;18.41;100.00;100637.09;6104283;23;20044;-71
2023/07/28 07:57:31;;;;;;;21.88;18.20;;;;;;;18.46;100.00;100636.84;6104295;23;20009;-71
2023/07/28 07:59:59;;;;;;;22.02;18.45;;;;;;;18.47;100.00;100638.59;6128490;23;20494;-71
2023/07/28 08:02:25;;;;;;;22.42;18.50;;;;;;;18.50;100.00;100643.75;6103313;23;20026;-71
2023/07/28 08:04:53;;;;;;;22.50;17.85;;;;;;;18.52;100.00;100636.59;6152790;23;20506;-71
2023/07/28 08:07:19;;;;;;;18.23;16.20;;;;;;;18.50;100.00;100643.75;6152249;23;20084;-71
2023/07/28 08:09:45;;;;;;;19.58;15.98;;;;;;;18.42;100.00;100636.16;6129428;23;20428;-71
2023/07/28 08:12:12;;;;;;;17.92;16.02;;;;;;;18.44;100.00;100644.03;6128470;23;20014;-71
2023/07/28 08:14:37;;;;;;;17.80;15.90;;;;;;;18.47;100.00;100641.25;6128790;23;20092;-71
2023/07/28 08:17:03;;;;;;;18.60;16.40;;;;;;;18.41;100.00;100642.41;6153115;23;20130;-71
2023/07/28 08:19:29;;;;;;;18.33;15.98;;;;;;;18.47;100.00;100646.53;6153862;23;20501;-69
2023/07/28 08:21:54;;;;;;;18.92;16.35;;;;;;;18.40;100.00;100650.44;6128753;23;20040;-70
2023/07/28 08:24:20;;;;;;;18.02;16.13;;;;;;;18.40;100.00;100647.78;6129142;23;20024;-69
2023/07/28 08:26:46;;;;;;;16.85;15.05;;;;;;;18.41;100.00;100653.00;6104070;23;20015;-69
2023/07/28 08:29:11;;;;;;;17.52;15.50;;;;;;;18.48;100.00;100653.59;6127771;23;20408;-69
2023/07/28 08:31:36;;;;;;;19.25;17.20;;;;;;;18.50;100.00;100649.94;6103456;23;20123;-69
2023/07/28 08:34:02;;;;;;;17.60;15.77;;;;;;;18.49;100.00;100655.31;6129399;23;20013;-69
2023/07/28 08:36:28;;;;;;;17.65;15.75;;;;;;;18.56;100.00;100664.69;6128325;23;20041;-69
2023/07/28 08:38:54;;;;;;;18.90;15.85;;;;;;;18.51;100.00;100664.03;6153473;23;20013;-70
2023/07/28 08:41:20;;;;;;;16.52;14.88;;;;;;;18.52;100.00;100665.78;6153751;23;20009;-69
2023/07/28 08:43:45;;;;;;;16.63;14.88;;;;;;;18.55;100.00;100670.94;6128959;23;20095;-69
2023/07/28 08:46:11;;;;;;;16.73;15.05;;;;;;;18.58;100.00;100668.13;6152450;23;20013;-69
2023/07/28 08:48:37;;;;;;;17.08;15.48;;;;;;;18.62;100.00;100663.50;6127500;23;20404;-71
2023/07/28 08:51:04;;;;;;;17.85;15.27;;;;;;;18.63;100.00;100668.78;6151115;23;20041;-71
2023/07/28 08:53:30;;;;;;;17.75;15.88;;;;;;;18.60;100.00;100660.94;6151824;23;20427;-71
2023/07/28 08:55:56;;;;;;;17.02;15.32;;;;;;;18.63;100.00;100668.78;6128957;23;20087;-71
2023/07/28 08:58:23;;;;;;;16.15;14.68;;;;;;;18.61;100.00;100667.97;6129173;23;20009;-71
2023/07/28 09:00:50;;;;;;;16.20;14.60;;;;;;;18.68;100.00;100674.69;6152626;23;20051;-71
2023/07/28 09:03:17;;;;;;;15.38;13.93;;;;;;;18.70;100.00;100680.81;6152230;23;20308;-71
2023/07/28 09:05:46;;;;;;;14.85;13.30;;;;;;;18.68;100.00;100674.69;6151493;23;20005;-71
2023/07/28 09:08:12;;;;;;;15.55;14.07;;;;;;;18.77;100.00;100672.53;6153331;23;20045;-71
2023/07/28 09:11:06;;;;;;;15.05;13.65;;;;;;;18.80;100.00;100681.19;6151934;23;20009;-71
2023/07/28 09:13:43;;;;;;;15.50;14.05;;;;;;;18.90;100.00;100673.69;6132407;23;20012;-71
2023/07/28 09:16:19;;;;;;;17.17;15.52;;;;;;;19.07;100.00;100669.34;6152407;23;20092;-71
2023/07/28 09:18:45;;;;;;;17.65;15.95;;;;;;;19.26;100.00;100672.78;6152594;23;20332;-71
2023/07/28 09:21:21;;;;;;;18.40;16.70;;;;;;;19.59;100.00;100677.28;6152058;23;20009;-71
2023/07/28 09:23:50;;;;;;;18.25;16.55;;;;;;;19.76;100.00;100670.25;6129115;23;20013;-71
2023/07/28 09:26:16;;;;;;;17.42;15.82;;;;;;;19.79;100.00;100670.97;6152831;23;20084;-71
2023/07/28 09:28:42;;;;;;;16.83;15.32;;;;;;;19.86;100.00;100683.00;6128757;23;20017;-71
2023/07/28 09:31:09;;;;;;;16.50;14.93;;;;;;;19.87;100.00;100678.56;6151985;23;20105;-71
2023/07/28 09:33:36;;;;;;;16.20;14.70;;;;;;;19.91;99.97;100685.41;6128977;23;20041;-71
2023/07/28 09:36:15;;;;;;;15.88;14.52;;;;;;;19.92;100.00;100684.47;6128559;23;20020;-71
2023/07/28 09:38:41;;;;;;;12.63;11.52;;;;;;;19.91;99.27;100682.75;6152899;23;20399;-71
2023/07/28 09:41:10;;;;;;;14.00;12.80;;;;;;;19.91;100.00;100680.06;6152718;23;20001;-71
2023/07/28 09:43:39;;;;;;;14.00;12.80;;;;;;;19.91;99.72;100680.06;6152635;23;20006;-69
2023/07/28 09:46:09;;;;;;;13.97;12.63;;;;;;;20.06;100.00;100678.41;6152526;23;20002;-70
2023/07/28 09:48:38;;;;;;;12.50;11.50;;;;;;;20.16;100.00;100679.63;6154298;23;20331;-70
2023/07/28 09:51:14;;;;;;;12.83;11.73;;;;;;;20.36;98.94;100675.88;6152794;23;20001;-71
2023/07/28 09:53:53;;;;;;;13.82;12.63;;;;;;;20.51;96.73;100675.97;6153123;23;20009;-71
2023/07/28 09:56:21;;;;;;;13.98;12.68;;;;;;;20.60;97.02;100683.41;6154459;23;20006;-71
2023/07/28 09:58:52;;;;;;;14.20;13.00;;;;;;;20.77;96.48;100683.38;6128711;23;20377;-71
2023/07/28 10:01:19;;;;;;;13.15;12.05;;;;;;;20.81;96.21;100685.84;6127533;23;20006;-71
2023/07/28 10:03:45;;;;;;;12.50;11.50;;;;;;;20.87;94.58;100681.00;6152639;23;20024;-71
2023/07/28 10:06:11;;;;;;;10.90;10.00;;;;;;;20.90;91.90;100685.31;6154271;23;20024;-71
2023/07/28 10:08:38;;;;;;;11.45;10.50;;;;;;;20.99;93.79;100691.91;6130622;23;20380;-71
2023/07/28 10:11:04;;;;;;;10.43;9.43;;;;;;;21.02;90.77;100683.75;6130121;23;20009;-71
2023/07/28 10:13:42;;;;;;;10.18;9.27;;;;;;;21.10;90.18;100687.69;6106008;23;20005;-71
2023/07/28 10:16:09;;;;;;;10.20;9.30;;;;;;;21.16;89.65;100680.28;6130784;23;20420;-70
2023/07/28 10:18:34;;;;;;;11.07;10.07;;;;;;;21.25;89.48;100691.25;6155097;23;20001;-70
2023/07/28 10:21:05;;;;;;;11.00;10.10;;;;;;;21.28;91.63;100679.56;6154788;23;20020;-70
2023/07/28 10:23:34;;;;;;;10.20;9.13;;;;;;;21.32;89.88;100688.22;6129802;23;20288;-70
2023/07/28 10:26:00;;;;;;;10.13;9.23;;;;;;;21.46;91.69;100689.13;6130335;23;20033;-69
2023/07/28 10:28:31;;;;;;;11.25;10.15;;;;;;;21.55;90.52;100690.41;6155028;23;20387;-70
2023/07/28 10:30:58;;;;;;;10.27;9.45;;;;;;;21.66;88.73;100687.09;6130032;23;20335;-70
2023/07/28 10:33:30;;;;;;;8.60;7.75;;;;;;;21.66;88.34;100689.75;6129873;23;20017;-70
2023/07/28 10:35:55;;;;;;;6.30;5.80;;;;;;;21.82;89.46;100678.16;6154851;23;20005;-70
2023/07/28 10:49:29;;;;;;;5.03;4.47;;;;;;;22.02;83.80;100688.44;6164195;23;20092;-68
2023/07/28 12:10:56;;;;;;;2.45;2.10;;;;;;;23.77;72.52;100672.53;6156018;23;20043;-68
2023/07/28 12:13:26;;;;;;;2.67;2.00;;;;;;;23.86;71.00;100676.38;6105039;23;20014;-68
2023/07/28 12:15:51;;;;;;;2.22;1.67;;;;;;;23.82;69.41;100677.56;6101225;23;20073;-68
2023/07/28 12:18:19;;;;;;;2.85;1.30;;;;;;;23.88;68.86;100677.19;6076313;23;20013;-68
2023/07/28 12:20:49;;;;;;;1.67;1.58;;;;;;;24.01;71.23;100674.50;6099982;23;20361;-68
2023/07/28 12:23:19;;;;;;;1.95;1.33;;;;;;;24.10;69.63;100673.81;6075586;23;20013;-68
2023/07/28 12:25:45;;;;;;;2.47;1.55;;;;;;;24.20;67.93;100677.56;6099200;23;20010;-68
2023/07/28 12:28:12;;;;;;;1.40;1.23;;;;;;;24.20;71.38;100684.75;6126101;23;20479;-68
2023/07/28 12:30:38;;;;;;;1.73;1.10;;;;;;;24.19;67.15;100689.25;6097624;23;20082;-68
2023/07/28 12:33:04;;;;;;;1.25;1.13;;;;;;;24.05;67.97;100684.03;6100119;23;20418;-68
2023/07/28 12:35:31;;;;;;;1.45;1.25;;;;;;;23.89;69.66;100686.91;6099370;23;20081;-68
2023/07/28 12:38:04;;;;;;;1.83;1.40;;;;;;;23.82;68.24;100681.13;6098141;23;20335;-68
2023/07/28 12:40:31;;;;;;;1.83;1.13;;;;;;;23.79;69.88;100681.34;6073757;23;20096;-68
2023/07/28 12:42:57;;;;;;;2.85;1.25;;;;;;;23.70;70.35;100682.84;6074634;23;20006;-68
2023/07/28 12:45:25;;;;;;;1.88;1.27;;;;;;;23.65;69.33;100702.84;6097673;23;20010;-67
2023/07/28 12:47:54;;;;;;;1.67;1.20;;;;;;;23.67;71.36;100687.53;6123988;23;20429;-67